ABW5927 URMM-URSS
Flight info
| Callsign | ABW5927 |
|---|---|
| Flight time | 0h 44m |
| Altitude | 26000 |
| Route | ABELA B967 ERSAR G487 BINOL |
| Aircraft | B77L/H-SDE1E2E3FGHIJ2J3J4J5M1RWXY/LB1D1 |
Departure
| Time | 2026-05-09 13:59 |
|---|---|
| Airport | Mineralnye Vody Airport (URMM) |
Arrival
| Time | 2026-05-09 14:43 |
|---|---|
| Airport | Sochi International Airport (URSS) |
| Time | Latitude | Longitude | Altitude | Speed | Heading |
|---|---|---|---|---|---|
| 2026-05-09 13:21 | 44.21379 | 43.09849 | 1055 ft | 0 kts | 301° |
| 2026-05-09 13:47 | 44.21381 | 43.09845 | 1055 ft | 2 kts | 301° |
| 2026-05-09 13:47 | 44.21402 | 43.09819 | 1055 ft | 5 kts | 338° |
| 2026-05-09 13:47 | 44.21438 | 43.09831 | 1055 ft | 5 kts | 26° |
| 2026-05-09 13:47 | 44.21471 | 43.09857 | 1055 ft | 6 kts | 31° |
| 2026-05-09 13:48 | 44.21504 | 43.09886 | 1055 ft | 6 kts | 35° |
| 2026-05-09 13:48 | 44.21530 | 43.09923 | 1056 ft | 6 kts | 56° |
| 2026-05-09 13:48 | 44.21545 | 43.09973 | 1055 ft | 6 kts | 71° |
| 2026-05-09 13:48 | 44.21554 | 43.10025 | 1055 ft | 6 kts | 76° |
| 2026-05-09 13:49 | 44.21563 | 43.10078 | 1056 ft | 6 kts | 77° |
| 2026-05-09 13:49 | 44.21571 | 43.10130 | 1056 ft | 6 kts | 77° |
| 2026-05-09 13:49 | 44.21582 | 43.10182 | 1056 ft | 6 kts | 66° |
| 2026-05-09 13:49 | 44.21608 | 43.10222 | 1056 ft | 6 kts | 39° |
| 2026-05-09 13:50 | 44.21644 | 43.10258 | 1056 ft | 7 kts | 34° |
| 2026-05-09 13:50 | 44.21687 | 43.10298 | 1054 ft | 7 kts | 34° |
| 2026-05-09 13:50 | 44.21734 | 43.10326 | 1056 ft | 7 kts | 5° |
| 2026-05-09 13:50 | 44.21775 | 43.10287 | 1057 ft | 8 kts | 309° |
| 2026-05-09 13:51 | 44.21819 | 43.10195 | 1057 ft | 17 kts | 302° |
| 2026-05-09 13:51 | 44.21896 | 43.10025 | 1058 ft | 22 kts | 302° |
| 2026-05-09 13:51 | 44.21977 | 43.09846 | 1060 ft | 22 kts | 302° |
| 2026-05-09 13:51 | 44.22060 | 43.09666 | 1062 ft | 22 kts | 302° |
| 2026-05-09 13:52 | 44.22142 | 43.09486 | 1059 ft | 22 kts | 302° |
| 2026-05-09 13:52 | 44.22224 | 43.09306 | 1059 ft | 22 kts | 302° |
| 2026-05-09 13:52 | 44.22306 | 43.09125 | 1057 ft | 22 kts | 302° |
| 2026-05-09 13:52 | 44.22387 | 43.08945 | 1057 ft | 22 kts | 302° |
| 2026-05-09 13:53 | 44.22469 | 43.08765 | 1059 ft | 22 kts | 302° |
| 2026-05-09 13:53 | 44.22550 | 43.08587 | 1058 ft | 22 kts | 302° |
| 2026-05-09 13:53 | 44.22632 | 43.08407 | 1057 ft | 22 kts | 302° |
| 2026-05-09 13:53 | 44.22714 | 43.08227 | 1054 ft | 22 kts | 302° |
| 2026-05-09 13:54 | 44.22795 | 43.08047 | 1053 ft | 22 kts | 302° |
| 2026-05-09 13:54 | 44.22877 | 43.07867 | 1054 ft | 22 kts | 302° |
| 2026-05-09 13:54 | 44.22933 | 43.07746 | 1055 ft | 22 kts | 302° |
| 2026-05-09 13:54 | 44.23014 | 43.07565 | 1057 ft | 22 kts | 302° |
| 2026-05-09 13:55 | 44.23095 | 43.07388 | 1054 ft | 22 kts | 302° |
| 2026-05-09 13:55 | 44.23177 | 43.07208 | 1052 ft | 22 kts | 302° |
| 2026-05-09 13:55 | 44.23259 | 43.07028 | 1049 ft | 22 kts | 302° |
| 2026-05-09 13:55 | 44.23341 | 43.06848 | 1051 ft | 22 kts | 302° |
| 2026-05-09 13:56 | 44.23423 | 43.06668 | 1054 ft | 22 kts | 302° |
| 2026-05-09 13:56 | 44.23492 | 43.06516 | 1055 ft | 16 kts | 303° |
| 2026-05-09 13:56 | 44.23558 | 43.06392 | 1055 ft | 14 kts | 306° |
| 2026-05-09 13:56 | 44.23599 | 43.06314 | 1056 ft | 8 kts | 307° |
| 2026-05-09 13:57 | 44.23600 | 43.06253 | 1055 ft | 5 kts | 207° |
| 2026-05-09 13:57 | 44.23584 | 43.06290 | 1055 ft | 5 kts | 98° |
| 2026-05-09 13:57 | 44.23572 | 43.06338 | 1056 ft | 5 kts | 116° |
| 2026-05-09 13:57 | 44.23565 | 43.06354 | 1056 ft | 0 kts | 123° |
| 2026-05-09 13:58 | 44.23536 | 43.06417 | 1056 ft | 27 kts | 123° |
| 2026-05-09 13:58 | 44.23304 | 43.06927 | 1051 ft | 96 kts | 122° |
| 2026-05-09 13:58 | 44.22841 | 43.07948 | 1053 ft | 151 kts | 122° |
| 2026-05-09 13:59 | 44.22232 | 43.09361 | 1206 ft | 176 kts | 119° |
| 2026-05-09 13:59 | 44.21591 | 43.10803 | 1678 ft | 181 kts | 120° |
| 2026-05-09 13:59 | 44.20924 | 43.12300 | 2244 ft | 179 kts | 121° |
| 2026-05-09 13:59 | 44.20255 | 43.13786 | 2815 ft | 183 kts | 121° |
| 2026-05-09 14:00 | 44.19536 | 43.15339 | 3092 ft | 201 kts | 121° |
| 2026-05-09 14:00 | 44.19022 | 43.16476 | 3300 ft | 210 kts | 121° |
| 2026-05-09 14:00 | 44.17938 | 43.18849 | 3778 ft | 230 kts | 121° |
| 2026-05-09 14:00 | 44.17047 | 43.20829 | 4049 ft | 251 kts | 121° |
| 2026-05-09 14:01 | 44.16115 | 43.22931 | 4733 ft | 253 kts | 120° |
| 2026-05-09 14:01 | 44.15534 | 43.25250 | 5321 ft | 259 kts | 93° |
| 2026-05-09 14:01 | 44.15913 | 43.27659 | 6094 ft | 257 kts | 60° |
| 2026-05-09 14:01 | 44.17121 | 43.29494 | 6767 ft | 262 kts | 34° |
| 2026-05-09 14:02 | 44.18808 | 43.30445 | 7341 ft | 272 kts | 9° |
| 2026-05-09 14:02 | 44.20716 | 43.30335 | 7894 ft | 282 kts | 344° |
| 2026-05-09 14:02 | 44.22439 | 43.28996 | 8445 ft | 288 kts | 316° |
| 2026-05-09 14:02 | 44.23770 | 43.26912 | 9153 ft | 290 kts | 309° |
| 2026-05-09 14:03 | 44.25059 | 43.24719 | 9773 ft | 294 kts | 311° |
| 2026-05-09 14:03 | 44.26445 | 43.22580 | 10362 ft | 300 kts | 313° |
| 2026-05-09 14:03 | 44.27896 | 43.20449 | 10932 ft | 307 kts | 313° |
| 2026-05-09 14:03 | 44.29374 | 43.18161 | 11165 ft | 326 kts | 308° |
| 2026-05-09 14:04 | 44.30506 | 43.15322 | 11337 ft | 348 kts | 287° |
| 2026-05-09 14:04 | 44.30859 | 43.11925 | 11780 ft | 362 kts | 268° |
| 2026-05-09 14:04 | 44.30327 | 43.08407 | 12078 ft | 381 kts | 245° |
| 2026-05-09 14:04 | 44.29057 | 43.05151 | 12556 ft | 385 kts | 241° |
| 2026-05-09 14:05 | 44.27899 | 43.01722 | 13247 ft | 391 kts | 249° |
| 2026-05-09 14:05 | 44.27040 | 42.98237 | 14097 ft | 394 kts | 253° |
| 2026-05-09 14:05 | 44.26293 | 42.94553 | 14921 ft | 396 kts | 255° |
| 2026-05-09 14:05 | 44.25584 | 42.90821 | 15732 ft | 399 kts | 255° |
| 2026-05-09 14:06 | 44.24850 | 42.87054 | 16516 ft | 403 kts | 255° |
| 2026-05-09 14:06 | 44.24084 | 42.83274 | 17258 ft | 407 kts | 254° |
| 2026-05-09 14:06 | 44.23287 | 42.79465 | 17985 ft | 411 kts | 253° |
| 2026-05-09 14:06 | 44.22468 | 42.75630 | 18723 ft | 414 kts | 253° |
| 2026-05-09 14:07 | 44.21638 | 42.71772 | 19404 ft | 417 kts | 253° |
| 2026-05-09 14:07 | 44.20800 | 42.67881 | 20016 ft | 421 kts | 254° |
| 2026-05-09 14:07 | 44.19963 | 42.64001 | 20636 ft | 425 kts | 253° |
| 2026-05-09 14:07 | 44.19113 | 42.59983 | 21293 ft | 428 kts | 256° |
| 2026-05-09 14:08 | 44.18608 | 42.55943 | 21876 ft | 430 kts | 265° |
| 2026-05-09 14:08 | 44.18364 | 42.51779 | 22445 ft | 435 kts | 266° |
| 2026-05-09 14:08 | 44.18176 | 42.47554 | 23016 ft | 439 kts | 267° |
| 2026-05-09 14:08 | 44.17986 | 42.43292 | 23662 ft | 441 kts | 267° |
| 2026-05-09 14:09 | 44.17774 | 42.39033 | 24330 ft | 440 kts | 267° |
| 2026-05-09 14:09 | 44.17540 | 42.34799 | 25111 ft | 436 kts | 266° |
| 2026-05-09 14:09 | 44.17291 | 42.30581 | 25712 ft | 438 kts | 266° |
| 2026-05-09 14:09 | 44.17029 | 42.26337 | 26139 ft | 441 kts | 266° |
| 2026-05-09 14:10 | 44.16484 | 42.17802 | 26110 ft | 438 kts | 266° |
| 2026-05-09 14:10 | 44.16212 | 42.13588 | 26106 ft | 436 kts | 265° |
| 2026-05-09 14:10 | 44.15940 | 42.09384 | 26107 ft | 437 kts | 266° |
| 2026-05-09 14:11 | 44.15666 | 42.05156 | 26113 ft | 439 kts | 265° |
| 2026-05-09 14:11 | 44.15389 | 42.00913 | 26117 ft | 440 kts | 265° |
| 2026-05-09 14:11 | 44.15119 | 41.96798 | 26109 ft | 440 kts | 266° |
| 2026-05-09 14:11 | 44.14840 | 41.92555 | 26114 ft | 441 kts | 265° |
| 2026-05-09 14:12 | 44.14557 | 41.88304 | 26112 ft | 440 kts | 265° |
| 2026-05-09 14:12 | 44.14275 | 41.84072 | 26108 ft | 439 kts | 265° |
| 2026-05-09 14:12 | 44.13992 | 41.79853 | 26105 ft | 437 kts | 266° |
| 2026-05-09 14:12 | 44.13708 | 41.75639 | 26100 ft | 437 kts | 265° |
| 2026-05-09 14:13 | 44.13427 | 41.71490 | 26120 ft | 436 kts | 265° |
| 2026-05-09 14:14 | 44.10189 | 41.42340 | 26114 ft | 440 kts | 248° |
| 2026-05-09 14:15 | 44.08993 | 41.38420 | 26133 ft | 440 kts | 248° |
| 2026-05-09 14:15 | 44.07776 | 41.34511 | 26114 ft | 441 kts | 248° |
| 2026-05-09 14:15 | 44.06556 | 41.30607 | 26126 ft | 440 kts | 248° |
| 2026-05-09 14:15 | 44.05340 | 41.26692 | 26137 ft | 441 kts | 248° |
| 2026-05-09 14:16 | 44.04131 | 41.22781 | 26139 ft | 441 kts | 247° |
| 2026-05-09 14:16 | 44.02924 | 41.18863 | 26122 ft | 440 kts | 248° |
| 2026-05-09 14:16 | 44.01722 | 41.14956 | 26138 ft | 440 kts | 248° |
| 2026-05-09 14:16 | 44.00520 | 41.11048 | 26131 ft | 440 kts | 248° |
| 2026-05-09 14:17 | 43.99316 | 41.07139 | 26149 ft | 439 kts | 248° |
| 2026-05-09 14:17 | 43.98113 | 41.03239 | 26164 ft | 439 kts | 248° |
| 2026-05-09 14:17 | 43.96951 | 40.99477 | 26139 ft | 439 kts | 248° |
| 2026-05-09 14:17 | 43.95747 | 40.95587 | 26153 ft | 438 kts | 248° |
| 2026-05-09 14:18 | 43.94544 | 40.91703 | 26158 ft | 438 kts | 248° |
| 2026-05-09 14:18 | 43.93353 | 40.87866 | 26171 ft | 439 kts | 248° |
| 2026-05-09 14:18 | 43.92130 | 40.83929 | 26169 ft | 439 kts | 248° |
| 2026-05-09 14:18 | 43.90933 | 40.80081 | 26170 ft | 439 kts | 248° |
| 2026-05-09 14:19 | 43.89720 | 40.76189 | 26160 ft | 440 kts | 248° |
| 2026-05-09 14:19 | 43.88507 | 40.72302 | 26165 ft | 440 kts | 247° |
| 2026-05-09 14:19 | 43.87284 | 40.68408 | 26166 ft | 440 kts | 247° |
| 2026-05-09 14:19 | 43.86050 | 40.64527 | 26172 ft | 440 kts | 248° |
| 2026-05-09 14:20 | 43.84811 | 40.60646 | 26170 ft | 440 kts | 248° |
| 2026-05-09 14:20 | 43.83569 | 40.56764 | 26163 ft | 441 kts | 247° |
| 2026-05-09 14:20 | 43.82339 | 40.52923 | 26137 ft | 430 kts | 247° |
| 2026-05-09 14:21 | 43.79995 | 40.45615 | 26107 ft | 404 kts | 247° |
| 2026-05-09 14:21 | 43.78848 | 40.42039 | 25749 ft | 408 kts | 247° |
| 2026-05-09 14:21 | 43.77696 | 40.38449 | 25333 ft | 407 kts | 246° |
| 2026-05-09 14:21 | 43.76549 | 40.34880 | 24901 ft | 404 kts | 247° |
| 2026-05-09 14:22 | 43.75413 | 40.31353 | 24462 ft | 396 kts | 247° |
| 2026-05-09 14:22 | 43.74306 | 40.27918 | 24050 ft | 389 kts | 246° |
| 2026-05-09 14:22 | 43.73206 | 40.24510 | 23596 ft | 387 kts | 246° |
| 2026-05-09 14:22 | 43.72109 | 40.21113 | 23121 ft | 386 kts | 246° |
| 2026-05-09 14:23 | 43.71030 | 40.17780 | 22694 ft | 383 kts | 246° |
| 2026-05-09 14:23 | 43.69942 | 40.14436 | 22256 ft | 378 kts | 245° |
| 2026-05-09 14:23 | 43.68483 | 40.11449 | 21828 ft | 373 kts | 225° |
| 2026-05-09 14:23 | 43.66438 | 40.09281 | 21439 ft | 371 kts | 208° |
| 2026-05-09 14:24 | 43.64101 | 40.07801 | 21051 ft | 368 kts | 204° |
| 2026-05-09 14:24 | 43.61770 | 40.06398 | 20647 ft | 366 kts | 205° |
| 2026-05-09 14:24 | 43.59438 | 40.04957 | 20248 ft | 364 kts | 205° |
| 2026-05-09 14:24 | 43.57136 | 40.03519 | 19868 ft | 361 kts | 205° |
| 2026-05-09 14:25 | 43.54849 | 40.02089 | 19532 ft | 360 kts | 205° |
| 2026-05-09 14:25 | 43.52567 | 40.00662 | 19191 ft | 361 kts | 205° |
| 2026-05-09 14:25 | 43.50353 | 39.99276 | 18870 ft | 362 kts | 205° |
| 2026-05-09 14:25 | 43.48054 | 39.97839 | 18511 ft | 363 kts | 205° |
| 2026-05-09 14:26 | 43.45783 | 39.96424 | 18146 ft | 362 kts | 205° |
| 2026-05-09 14:26 | 43.43438 | 39.95138 | 17768 ft | 362 kts | 200° |
| 2026-05-09 14:26 | 43.41080 | 39.94055 | 17345 ft | 352 kts | 198° |
| 2026-05-09 14:26 | 43.38757 | 39.93045 | 17005 ft | 349 kts | 198° |
| 2026-05-09 14:27 | 43.36446 | 39.92040 | 16659 ft | 349 kts | 198° |
| 2026-05-09 14:27 | 43.34136 | 39.91022 | 16322 ft | 348 kts | 199° |
| 2026-05-09 14:27 | 43.31841 | 39.89997 | 16001 ft | 347 kts | 199° |
| 2026-05-09 14:27 | 43.29547 | 39.88964 | 15670 ft | 346 kts | 198° |
| 2026-05-09 14:28 | 43.27259 | 39.87930 | 15341 ft | 346 kts | 199° |
| 2026-05-09 14:28 | 43.24976 | 39.86895 | 15013 ft | 345 kts | 199° |
| 2026-05-09 14:28 | 43.22698 | 39.85862 | 14672 ft | 345 kts | 198° |
| 2026-05-09 14:28 | 43.20429 | 39.84834 | 14335 ft | 338 kts | 198° |
| 2026-05-09 14:29 | 43.18244 | 39.83844 | 14072 ft | 321 kts | 198° |
| 2026-05-09 14:29 | 43.16209 | 39.82923 | 13851 ft | 304 kts | 198° |
| 2026-05-09 14:29 | 43.14236 | 39.82030 | 13468 ft | 294 kts | 198° |
| 2026-05-09 14:29 | 43.12304 | 39.81157 | 13124 ft | 291 kts | 198° |
| 2026-05-09 14:30 | 43.11008 | 39.80572 | 12868 ft | 289 kts | 198° |
| 2026-05-09 14:30 | 43.08486 | 39.79435 | 12374 ft | 287 kts | 197° |
| 2026-05-09 14:30 | 43.06695 | 39.78321 | 11876 ft | 285 kts | 218° |
| 2026-05-09 14:30 | 43.05446 | 39.76230 | 11442 ft | 286 kts | 245° |
| 2026-05-09 14:31 | 43.04994 | 39.73610 | 11148 ft | 285 kts | 268° |
| 2026-05-09 14:31 | 43.05293 | 39.70958 | 10884 ft | 282 kts | 287° |
| 2026-05-09 14:31 | 43.05912 | 39.68386 | 10711 ft | 287 kts | 288° |
| 2026-05-09 14:31 | 43.06532 | 39.65767 | 10500 ft | 291 kts | 287° |
| 2026-05-09 14:32 | 43.07148 | 39.63123 | 10296 ft | 292 kts | 287° |
| 2026-05-09 14:32 | 43.07758 | 39.60478 | 10083 ft | 291 kts | 287° |
| 2026-05-09 14:32 | 43.08367 | 39.57841 | 9880 ft | 290 kts | 287° |
| 2026-05-09 14:32 | 43.08973 | 39.55214 | 9671 ft | 289 kts | 287° |
| 2026-05-09 14:33 | 43.09577 | 39.52592 | 9455 ft | 288 kts | 287° |
| 2026-05-09 14:33 | 43.10168 | 39.50018 | 9268 ft | 287 kts | 287° |
| 2026-05-09 14:33 | 43.10948 | 39.47547 | 8984 ft | 284 kts | 307° |
| 2026-05-09 14:33 | 43.12439 | 39.45803 | 8624 ft | 285 kts | 334° |
| 2026-05-09 14:34 | 43.14319 | 39.44968 | 8258 ft | 282 kts | 348° |
| 2026-05-09 14:34 | 43.16229 | 39.44386 | 7750 ft | 282 kts | 348° |
| 2026-05-09 14:34 | 43.18149 | 39.43796 | 7193 ft | 282 kts | 348° |
| 2026-05-09 14:34 | 43.20043 | 39.43201 | 6582 ft | 276 kts | 348° |
| 2026-05-09 14:35 | 43.21895 | 39.42612 | 5954 ft | 270 kts | 348° |
| 2026-05-09 14:35 | 43.23707 | 39.42053 | 5327 ft | 264 kts | 353° |
| 2026-05-09 14:35 | 43.25516 | 39.42264 | 4793 ft | 262 kts | 24° |
| 2026-05-09 14:35 | 43.26980 | 39.43653 | 4448 ft | 255 kts | 50° |
| 2026-05-09 14:36 | 43.27914 | 39.45668 | 4128 ft | 248 kts | 66° |
| 2026-05-09 14:36 | 43.28627 | 39.47791 | 3833 ft | 243 kts | 65° |
| 2026-05-09 14:36 | 43.29342 | 39.49898 | 3560 ft | 243 kts | 65° |
| 2026-05-09 14:36 | 43.30060 | 39.52002 | 3320 ft | 242 kts | 65° |
| 2026-05-09 14:37 | 43.30765 | 39.54063 | 3090 ft | 234 kts | 65° |
| 2026-05-09 14:37 | 43.31430 | 39.56018 | 2886 ft | 225 kts | 65° |
| 2026-05-09 14:37 | 43.32089 | 39.57958 | 2762 ft | 223 kts | 65° |
| 2026-05-09 14:37 | 43.32744 | 39.59880 | 2644 ft | 222 kts | 65° |
| 2026-05-09 14:38 | 43.33396 | 39.61795 | 2513 ft | 221 kts | 65° |
| 2026-05-09 14:38 | 43.34048 | 39.63713 | 2400 ft | 222 kts | 65° |
| 2026-05-09 14:38 | 43.34702 | 39.65636 | 2311 ft | 221 kts | 65° |
| 2026-05-09 14:38 | 43.35342 | 39.67519 | 2247 ft | 214 kts | 65° |
| 2026-05-09 14:39 | 43.35965 | 39.69340 | 2105 ft | 206 kts | 65° |
| 2026-05-09 14:39 | 43.36572 | 39.71099 | 2046 ft | 203 kts | 65° |
| 2026-05-09 14:39 | 43.37173 | 39.72844 | 2005 ft | 202 kts | 65° |
| 2026-05-09 14:39 | 43.37771 | 39.74581 | 2045 ft | 200 kts | 65° |
| 2026-05-09 14:40 | 43.38348 | 39.76261 | 1992 ft | 188 kts | 65° |
| 2026-05-09 14:40 | 43.38890 | 39.77836 | 2007 ft | 180 kts | 64° |
| 2026-05-09 14:40 | 43.39407 | 39.79343 | 2003 ft | 173 kts | 64° |
| 2026-05-09 14:40 | 43.39925 | 39.80846 | 1951 ft | 177 kts | 64° |
| 2026-05-09 14:41 | 43.40470 | 39.82373 | 1698 ft | 176 kts | 62° |
| 2026-05-09 14:41 | 43.41021 | 39.83862 | 1372 ft | 171 kts | 62° |
| 2026-05-09 14:41 | 43.41531 | 39.85332 | 1164 ft | 169 kts | 67° |
| 2026-05-09 14:41 | 43.41812 | 39.86365 | 1028 ft | 175 kts | 69° |
| 2026-05-09 14:42 | 43.42301 | 39.87897 | 780 ft | 174 kts | 64° |
| 2026-05-09 14:42 | 43.42829 | 39.89376 | 583 ft | 171 kts | 62° |
| 2026-05-09 14:42 | 43.43517 | 39.91326 | 303 ft | 171 kts | 64° |
| 2026-05-09 14:42 | 43.43858 | 39.92292 | 139 ft | 173 kts | 63° |
| 2026-05-09 14:43 | 43.44350 | 39.93776 | 58 ft | 162 kts | 63° |
| 2026-05-09 14:43 | 43.44735 | 39.94881 | 84 ft | 60 kts | 64° |
| 2026-05-09 14:43 | 43.44832 | 39.95173 | 87 ft | 19 kts | 79° |
| 2026-05-09 14:43 | 43.44773 | 39.95269 | 89 ft | 10 kts | 158° |
| 2026-05-09 14:44 | 43.44703 | 39.95278 | 89 ft | 10 kts | 194° |
| 2026-05-09 14:44 | 43.44662 | 39.95209 | 89 ft | 5 kts | 246° |
| 2026-05-09 14:44 | 43.44643 | 39.95150 | 86 ft | 9 kts | 246° |
| 2026-05-09 14:44 | 43.44616 | 39.95067 | 84 ft | 9 kts | 244° |
| 2026-05-09 14:45 | 43.44589 | 39.94991 | 84 ft | 9 kts | 244° |
| 2026-05-09 14:45 | 43.44560 | 39.94909 | 69 ft | 10 kts | 245° |
| 2026-05-09 14:45 | 43.44532 | 39.94823 | 67 ft | 10 kts | 244° |
| 2026-05-09 14:45 | 43.44501 | 39.94735 | 67 ft | 10 kts | 244° |
| 2026-05-09 14:46 | 43.44470 | 39.94645 | 67 ft | 10 kts | 244° |
| 2026-05-09 14:46 | 43.44439 | 39.94555 | 65 ft | 10 kts | 245° |
| 2026-05-09 14:46 | 43.44409 | 39.94465 | 63 ft | 10 kts | 245° |
| 2026-05-09 14:46 | 43.44378 | 39.94375 | 70 ft | 10 kts | 245° |
| 2026-05-09 14:47 | 43.44348 | 39.94285 | 66 ft | 10 kts | 244° |
| 2026-05-09 14:47 | 43.44314 | 39.94187 | 64 ft | 12 kts | 245° |
| 2026-05-09 14:47 | 43.44275 | 39.94072 | 61 ft | 14 kts | 245° |
| 2026-05-09 14:47 | 43.44232 | 39.93946 | 58 ft | 14 kts | 245° |
| 2026-05-09 14:48 | 43.44189 | 39.93820 | 55 ft | 15 kts | 245° |
| 2026-05-09 14:48 | 43.44142 | 39.93683 | 51 ft | 15 kts | 245° |
| 2026-05-09 14:48 | 43.44105 | 39.93574 | 53 ft | 13 kts | 245° |
| 2026-05-09 14:48 | 43.44074 | 39.93483 | 56 ft | 9 kts | 245° |
| 2026-05-09 14:49 | 43.44051 | 39.93416 | 53 ft | 8 kts | 245° |
| 2026-05-09 14:49 | 43.44032 | 39.93362 | 49 ft | 6 kts | 245° |
| 2026-05-09 14:49 | 43.44015 | 39.93310 | 47 ft | 2 kts | 245° |
| 2026-05-09 14:49 | 43.43998 | 39.93285 | 49 ft | 5 kts | 211° |
| 2026-05-09 14:50 | 43.43970 | 39.93286 | 49 ft | 3 kts | 167° |
| 2026-05-09 14:50 | 43.43947 | 39.93297 | 49 ft | 3 kts | 153° |
| 2026-05-09 14:50 | 43.43928 | 39.93311 | 46 ft | 3 kts | 153° |
| 2026-05-09 14:50 | 43.43911 | 39.93322 | 50 ft | 3 kts | 154° |
| 2026-05-09 14:51 | 43.43903 | 39.93327 | 50 ft | 0 kts | 154° |